CheckWX is a tool to help pilots better visualize weather data.  It is not intended as a substitute for an official pre-flight weather briefing.

01:22:07 UTC

KHIO METAR
Portland-Hillsboro Airport
Portland, Oregon, USA
Current

29 mins ago

KHIO 200053Z 32009KT 10SM FEW065 23/07 A3005 RMK AO2 SLP176 T02330067
Observed
Jul-20 @ 00:53 UTC
Wind
  • 320° at 9 KTS
Visibility
10 SM
Flight Rules
VFR
Cloud Levels
  • Few at 6,500' AGL
Temperature
23°C / 73°F
Dewpoint
C / 45°F
Humidity
36%
Altimeter
30.05" Hg
Pressure
1017.62 hPa
Previous

1 hour ago

KHIO 192353Z 34010KT 10SM CLR 23/07 A3007 RMK AO2 SLP181 T02280072 10239 20183 56010
Observed
Jul-19 @ 23:53 UTC
Wind
  • 340° at 10 KTS
Visibility
10 SM
Flight Rules
VFR
Cloud Levels
  • Clear skies
Temperature
23°C / 73°F
Dewpoint
C / 45°F
Humidity
36%
Altimeter
30.07" Hg
Pressure
1018.32 hPa
Previous

2 hours ago

KHIO 192253Z 01010KT 10SM SCT060 23/07 A3008 RMK AO2 SLP184 T02280067
Observed
Jul-19 @ 22:53 UTC
Wind
  • 010° at 10 KTS
Visibility
10 SM
Flight Rules
VFR
Cloud Levels
  • Scattered at 6,000' AGL
Temperature
23°C / 73°F
Dewpoint
C / 45°F
Humidity
36%
Altimeter
30.08" Hg
Pressure
1018.62 hPa